Time;durP1;ratioP1;P1;durP2;ratioP2;P2;SDS_P1;SDS_P2;PMS_P1;PMS_P2;Temp;Humidity;BMP_temperature;BMP_pressure;BME280_temperature;BME280_humidity;BME280_pressure;Samples;Min_cycle;Max_cycle;Signal;HPM_P1;HPM_P2
2023/01/06 00:00:37;;;;;;;5.15;2.58;;;12.10;90.80;;;;;;5075373;28;20443;-76
2023/01/06 00:03:03;;;;;;;5.03;2.45;;;12.10;90.80;;;;;;5074769;28;20108;-78
2023/01/06 00:05:29;;;;;;;4.50;2.45;;;12.10;90.80;;;;;;5073728;28;20059;-78
2023/01/06 00:07:55;;;;;;;4.55;2.40;;;12.10;90.80;;;;;;5073632;28;20552;-79
2023/01/06 00:10:20;;;;;;;5.10;2.50;;;12.10;90.80;;;;;;5073976;28;20056;-77
2023/01/06 00:12:47;;;;;;;6.43;2.60;;;12.10;90.80;;;;;;5073357;28;20068;-76
2023/01/06 00:15:14;;;;;;;4.57;2.50;;;12.10;90.80;;;;;;5073488;28;20024;-78
2023/01/06 00:17:40;;;;;;;5.10;2.60;;;12.20;90.80;;;;;;5072630;28;20020;-76
2023/01/06 00:20:06;;;;;;;4.32;2.40;;;12.10;90.80;;;;;;5073117;28;20029;-76
2023/01/06 00:22:32;;;;;;;5.68;2.58;;;12.10;90.80;;;;;;5074281;28;20029;-75
2023/01/06 00:24:57;;;;;;;4.97;2.50;;;12.10;90.80;;;;;;5074623;28;20020;-75
2023/01/06 00:27:23;;;;;;;4.35;2.35;;;12.10;90.80;;;;;;5073330;28;20028;-76
2023/01/06 00:29:49;;;;;;;5.88;2.60;;;12.20;90.80;;;;;;5074412;28;20099;-76
2023/01/06 00:32:15;;;;;;;4.18;2.20;;;12.10;90.80;;;;;;5073085;28;20029;-77
2023/01/06 00:34:41;;;;;;;4.95;2.50;;;12.10;90.80;;;;;;5073126;28;20021;-77
2023/01/06 00:37:06;;;;;;;4.00;2.15;;;12.10;90.80;;;;;;5073011;28;20020;-78
2023/01/06 00:39:32;;;;;;;4.60;2.47;;;12.20;90.80;;;;;;5074147;28;20062;-78
2023/01/06 00:42:03;;;;;;;4.85;2.47;;;12.10;90.80;;;;;;5074336;28;20480;-76
2023/01/06 00:44:30;;;;;;;4.18;2.38;;;12.10;90.80;;;;;;5072813;28;20039;-77
2023/01/06 00:46:55;;;;;;;4.60;2.53;;;12.10;90.80;;;;;;5074226;28;20039;-76
2023/01/06 00:49:21;;;;;;;5.63;2.38;;;12.10;90.80;;;;;;5072784;28;20479;-77
2023/01/06 00:51:47;;;;;;;5.07;2.53;;;12.10;90.80;;;;;;5074026;28;20027;-77
2023/01/06 00:54:14;;;;;;;4.07;2.17;;;12.10;90.80;;;;;;5072374;28;20025;-76
2023/01/06 00:56:42;;;;;;;5.13;2.78;;;12.10;90.80;;;;;;5072561;28;20139;-78
2023/01/06 00:59:08;;;;;;;4.90;2.40;;;12.10;90.80;;;;;;5073721;28;20024;-74
2023/01/06 01:01:35;;;;;;;4.80;2.60;;;12.10;90.80;;;;;;5072650;28;20024;-77
2023/01/06 01:04:01;;;;;;;4.47;2.25;;;12.10;90.80;;;;;;5072287;28;20024;-77
2023/01/06 01:06:27;;;;;;;5.45;2.35;;;12.10;90.80;;;;;;5073852;28;20025;-78
2023/01/06 01:08:58;;;;;;;4.28;2.30;;;12.10;90.80;;;;;;5073923;28;20032;-76
2023/01/06 01:14:11;;;;;;;4.35;2.30;;;12.10;90.80;;;;;;5073665;28;20051;-77
2023/01/06 01:16:37;;;;;;;4.57;2.30;;;12.10;90.80;;;;;;5072320;28;20130;-78
2023/01/06 01:19:03;;;;;;;4.63;2.47;;;12.10;90.80;;;;;;5073749;28;20021;-78
2023/01/06 01:21:29;;;;;;;4.15;2.22;;;12.20;90.80;;;;;;5072209;28;20023;-78
2023/01/06 01:23:54;;;;;;;4.38;2.28;;;12.20;90.80;;;;;;5071986;28;20487;-76
2023/01/06 01:26:20;;;;;;;3.42;2.10;;;12.20;90.80;;;;;;5072142;28;20025;-77
2023/01/06 01:28:45;;;;;;;4.25;2.17;;;12.10;90.80;;;;;;5071964;28;20430;-77
2023/01/06 01:31:12;;;;;;;5.20;2.25;;;12.10;90.80;;;;;;5073037;28;20028;-78
2023/01/06 01:33:37;;;;;;;4.20;2.20;;;12.10;90.80;;;;;;5073087;28;20024;-77
2023/01/06 01:36:08;;;;;;;4.85;2.40;;;12.10;90.80;;;;;;5073223;28;20027;-77
2023/01/06 01:38:34;;;;;;;3.97;2.08;;;12.10;90.80;;;;;;5072788;28;20025;-77
2023/01/06 01:41:00;;;;;;;4.00;2.10;;;12.10;90.80;;;;;;5071964;28;20047;-76
2023/01/06 01:43:41;;;;;;;3.78;1.98;;;12.10;90.80;;;;;;5071656;28;20021;-78
2023/01/06 01:46:06;;;;;;;;;;;12.10;90.80;;;;;;5072374;28;20063;-76
2023/01/06 01:48:34;;;;;;;3.78;1.95;;;12.20;90.80;;;;;;5071652;28;19956;-77
2023/01/06 01:51:06;;;;;;;7.25;2.10;;;12.10;90.80;;;;;;5071650;28;20024;-77
2023/01/06 01:53:39;;;;;;;4.82;2.10;;;12.10;90.80;;;;;;5071528;28;20226;-77
2023/01/06 01:56:08;;;;;;;3.45;2.05;;;12.10;90.80;;;;;;5072789;28;20041;-76
2023/01/06 01:58:41;;;;;;;3.13;2.00;;;12.10;90.80;;;;;;5072796;28;20086;-78
2023/01/06 02:01:09;;;;;;;3.92;2.00;;;12.10;90.80;;;;;;5071630;28;20032;-77
2023/01/06 02:03:36;;;;;;;4.22;2.30;;;12.20;90.80;;;;;;5071382;28;20025;-76
2023/01/06 02:06:04;;;;;;;3.70;1.90;;;12.10;90.80;;;;;;5071495;28;20082;-77
2023/01/06 02:08:40;;;;;;;4.28;2.10;;;12.10;90.80;;;;;;5071381;28;20042;-77
2023/01/06 02:11:07;;;;;;;4.13;2.30;;;12.10;90.80;;;;;;5072594;28;20074;-76
2023/01/06 02:13:36;;;;;;;4.40;2.28;;;12.20;90.80;;;;;;5072733;28;20110;-76
2023/01/06 02:16:28;;;;;;;3.47;1.90;;;12.10;90.80;;;;;;5071567;28;20591;-77
2023/01/06 02:19:33;;;;;;;3.78;2.10;;;12.10;90.80;;;;;;5071421;28;20025;-77
2023/01/06 02:22:22;;;;;;;4.05;2.13;;;12.10;90.80;;;;;;5072603;28;20475;-76
2023/01/06 02:24:47;;;;;;;4.03;2.20;;;12.10;90.80;;;;;;5071379;28;20487;-78
2023/01/06 02:27:37;;;;;;;4.85;2.25;;;12.10;90.80;;;;;;5071198;28;20063;-76
2023/01/06 02:30:37;;;;;;;4.40;2.20;;;12.10;90.80;;;;;;5072451;28;20105;-79
2023/01/06 02:33:27;;;;;;;4.03;2.10;;;12.10;90.80;;;;;;5071164;28;20265;-78
2023/01/06 02:36:25;;;;;;;3.92;2.25;;;12.10;90.80;;;;;;5072550;28;20499;-78
2023/01/06 02:39:11;;;;;;;4.10;2.20;;;12.10;90.80;;;;;;5070866;28;20017;-76
2023/01/06 02:41:44;;;;;;;4.68;2.22;;;12.10;90.80;;;;;;5073531;28;20077;-76
2023/01/06 02:44:39;;;;;;;4.45;2.30;;;12.10;90.80;;;;;;5075161;28;20048;-78
2023/01/06 02:47:04;;;;;;;3.65;2.30;;;12.10;90.80;;;;;;5058969;28;20037;-78
2023/01/06 02:49:41;;;;;;;4.00;2.15;;;12.10;90.80;;;;;;5075115;28;20036;-76
2023/01/06 02:52:19;;;;;;;5.00;2.55;;;12.10;90.80;;;;;;5075165;28;20020;-76
2023/01/06 02:55:06;;;;;;;4.25;2.22;;;12.20;90.90;;;;;;5074900;28;20115;-76
2023/01/06 02:57:35;;;;;;;4.72;2.40;;;12.10;90.80;;;;;;5076210;28;20037;-76
2023/01/06 03:00:28;;;;;;;4.35;2.25;;;12.10;90.80;;;;;;5074899;28;20029;-76
2023/01/06 03:02:58;;;;;;;3.95;2.30;;;12.10;90.80;;;;;;5075756;28;20033;-76
2023/01/06 03:05:25;;;;;;;4.88;2.55;;;12.10;90.80;;;;;;5074769;28;20025;-77
2023/01/06 03:07:53;;;;;;;4.45;2.55;;;12.10;90.80;;;;;;5076063;28;20024;-76
2023/01/06 03:10:22;;;;;;;3.47;2.20;;;12.10;90.80;;;;;;5076258;28;20028;-78
2023/01/06 03:13:01;;;;;;;4.05;2.20;;;12.20;90.80;;;;;;5074527;28;20028;-76
2023/01/06 03:15:27;;;;;;;4.55;2.42;;;12.10;90.80;;;;;;5077265;28;20012;-76
2023/01/06 03:17:52;;;;;;;5.00;2.65;;;12.10;90.80;;;;;;5074561;28;20031;-77
2023/01/06 03:20:18;;;;;;;4.32;2.35;;;12.10;90.80;;;;;;5074538;28;20036;-75
2023/01/06 03:22:44;;;;;;;4.88;2.47;;;12.20;90.90;;;;;;5073958;28;20366;-76
2023/01/06 03:25:11;;;;;;;4.32;2.28;;;12.10;90.80;;;;;;5075609;28;20086;-76
2023/01/06 03:27:36;;;;;;;3.88;2.10;;;12.20;90.90;;;;;;5074266;28;20568;-76
2023/01/06 03:30:08;;;;;;;3.53;1.90;;;12.10;90.80;;;;;;5075419;28;20111;-76
2023/01/06 03:33:01;;;;;;;4.78;2.33;;;12.20;90.90;;;;;;5073990;28;20020;-75
2023/01/06 03:35:32;;;;;;;3.22;1.80;;;12.10;90.80;;;;;;5074098;28;20017;-75
2023/01/06 03:38:04;;;;;;;3.45;2.10;;;12.10;90.80;;;;;;5071173;28;20028;-76
2023/01/06 03:40:41;;;;;;;4.38;2.25;;;12.10;90.80;;;;;;5073823;28;20037;-76
2023/01/06 03:43:22;;;;;;;3.58;2.20;;;12.10;90.80;;;;;;5073837;28;20055;-76
2023/01/06 03:45:53;;;;;;;;;;;12.10;90.80;;;;;;5075708;28;20035;-75
2023/01/06 03:48:29;;;;;;;3.90;2.10;;;12.10;90.80;;;;;;5074184;28;19911;-76
2023/01/06 03:51:05;;;;;;;5.70;2.33;;;12.10;90.80;;;;;;5075145;28;20028;-76
2023/01/06 03:53:45;;;;;;;3.88;2.00;;;12.10;90.80;;;;;;5074896;28;20016;-76
2023/01/06 03:56:28;;;;;;;4.10;2.30;;;12.10;90.80;;;;;;5073635;28;20435;-76
2023/01/06 03:58:58;;;;;;;3.58;1.85;;;12.10;91.10;;;;;;5073440;28;20021;-76
2023/01/06 04:01:25;;;;;;;4.15;2.33;;;12.10;90.80;;;;;;5074936;28;20032;-77
2023/01/06 04:03:52;;;;;;;4.15;2.30;;;12.20;90.90;;;;;;5074646;28;20024;-76
2023/01/06 04:06:18;;;;;;;3.42;2.03;;;12.10;90.80;;;;;;5073625;28;20028;-75
2023/01/06 04:08:44;;;;;;;4.45;2.22;;;12.20;90.90;;;;;;5074848;28;20107;-76
2023/01/06 04:12:37;;;;;;;3.80;2.03;;;12.10;90.80;;;;;;5074749;28;20025;-76
2023/01/06 04:13:55;;;;;;;3.13;2.05;;;12.20;90.80;;;;;;5074369;28;20020;-77
2023/01/06 04:16:20;;;;;;;3.78;2.10;;;12.10;90.80;;;;;;5074670;28;20059;-76
2023/01/06 04:18:46;;;;;;;4.03;2.10;;;12.10;90.80;;;;;;5074680;28;20020;-76
2023/01/06 04:21:11;;;;;;;3.80;2.08;;;12.10;90.80;;;;;;5073198;28;20032;-76
2023/01/06 04:23:37;;;;;;;3.35;2.03;;;12.20;90.80;;;;;;5073019;28;20129;-76
2023/01/06 04:26:02;;;;;;;2.80;1.70;;;12.10;90.80;;;;;;5073340;28;20029;-76
2023/01/06 04:28:28;;;;;;;4.15;2.05;;;12.10;90.80;;;;;;5073228;28;20028;-76
2023/01/06 04:30:57;;;;;;;3.42;1.85;;;12.10;90.80;;;;;;5074265;28;20036;-76
2023/01/06 04:33:22;;;;;;;3.67;2.05;;;12.20;90.80;;;;;;5074059;28;20157;-76
2023/01/06 04:35:48;;;;;;;3.60;2.03;;;12.10;90.80;;;;;;5073075;28;20507;-76
2023/01/06 04:38:13;;;;;;;3.33;1.95;;;12.10;90.80;;;;;;5073727;28;20029;-76
2023/01/06 04:40:41;;;;;;;4.20;1.88;;;12.10;90.80;;;;;;5072989;28;20023;-73
2023/01/06 04:43:12;;;;;;;3.10;2.00;;;12.10;90.80;;;;;;5073822;28;20042;-76
2023/01/06 04:45:39;;;;;;;2.70;1.65;;;12.20;90.80;;;;;;5072803;28;20033;-77
2023/01/06 04:48:05;;;;;;;3.58;1.63;;;12.20;90.80;;;;;;5072743;28;20544;-77
2023/01/06 04:50:31;;;;;;;3.95;2.00;;;12.10;90.80;;;;;;5073907;28;20055;-77
2023/01/06 04:52:57;;;;;;;3.35;1.90;;;12.20;90.90;;;;;;5073550;28;20099;-76
2023/01/06 04:55:23;;;;;;;3.30;1.90;;;12.10;90.80;;;;;;5073819;28;20062;-76
2023/01/06 04:57:48;;;;;;;3.95;1.95;;;12.20;90.80;;;;;;5072594;28;20458;-76
2023/01/06 05:00:14;;;;;;;3.13;1.83;;;12.10;90.80;;;;;;5072772;28;20123;-75
2023/01/06 05:02:40;;;;;;;3.92;2.10;;;12.20;90.80;;;;;;5072371;28;20054;-76
2023/01/06 05:05:06;;;;;;;3.10;1.80;;;12.10;90.80;;;;;;5073138;28;20032;-76
2023/01/06 05:07:31;;;;;;;2.90;1.55;;;12.10;90.80;;;;;;5073604;28;20075;-76
2023/01/06 05:09:56;;;;;;;2.85;1.73;;;12.10;90.80;;;;;;5073541;28;20059;-76
2023/01/06 05:12:22;;;;;;;2.50;1.67;;;12.20;90.80;;;;;;5073369;28;20032;-76
2023/01/06 05:14:47;;;;;;;3.25;2.00;;;12.10;90.80;;;;;;5073474;28;20546;-76
2023/01/06 05:17:13;;;;;;;3.72;1.70;;;12.10;90.80;;;;;;5072137;28;20088;-76
2023/01/06 05:19:40;;;;;;;2.92;1.63;;;12.10;90.80;;;;;;5073441;28;20477;-76
2023/01/06 05:22:06;;;;;;;2.67;1.63;;;12.10;90.80;;;;;;5073370;28;20055;-76
2023/01/06 05:24:31;;;;;;;2.90;1.45;;;12.10;90.80;;;;;;5071797;28;20020;-76
2023/01/06 05:26:57;;;;;;;2.47;1.65;;;12.10;90.80;;;;;;5072090;28;20056;-76
2023/01/06 05:29:22;;;;;;;3.22;1.70;;;12.10;90.80;;;;;;5071901;28;20112;-76
2023/01/06 05:31:48;;;;;;;2.92;1.50;;;12.10;90.80;;;;;;5073033;28;20024;-76
2023/01/06 05:34:13;;;;;;;4.63;1.70;;;12.10;90.80;;;;;;5071739;28;20032;-76
2023/01/06 05:36:39;;;;;;;3.30;1.60;;;12.10;90.80;;;;;;5072995;28;20046;-76
2023/01/06 05:39:04;;;;;;;3.58;1.80;;;12.10;90.80;;;;;;5069055;28;20051;-76
2023/01/06 05:41:30;;;;;;;2.45;1.55;;;12.10;90.80;;;;;;5071602;28;20138;-76
2023/01/06 05:43:56;;;;;;;3.13;1.80;;;12.10;90.80;;;;;;5071501;28;20496;-76
2023/01/06 05:46:21;;;;;;;3.17;1.60;;;12.10;90.80;;;;;;5072808;28;20021;-76
2023/01/06 05:48:47;;;;;;;2.65;1.40;;;12.20;90.80;;;;;;5071774;28;20035;-76
2023/01/06 05:51:14;;;;;;;3.45;1.75;;;12.10;90.80;;;;;;5071432;28;20024;-77
2023/01/06 05:53:41;;;;;;;2.88;1.70;;;12.20;90.80;;;;;;5072071;28;20024;-75
2023/01/06 05:56:10;;;;;;;2.97;1.58;;;12.20;90.80;;;;;;5066893;28;20770;-75
2023/01/06 05:58:39;;;;;;;3.13;1.85;;;12.10;90.80;;;;;;5065841;28;20024;-75
2023/01/06 06:01:05;;;;;;;3.30;1.63;;;12.20;90.80;;;;;;5059470;28;20025;-74
2023/01/06 06:03:32;;;;;;;3.28;1.60;;;12.10;90.80;;;;;;5062547;28;20033;-73
2023/01/06 06:06:05;;;;;;;2.42;1.55;;;12.10;90.80;;;;;;5054860;28;20462;-74
2023/01/06 06:08:31;;;;;;;2.63;1.50;;;12.10;90.80;;;;;;5049690;28;20025;-73
2023/01/06 06:11:05;;;;;;;2.00;1.33;;;12.10;90.80;;;;;;5044947;28;20765;-74
2023/01/06 06:13:31;;;;;;;2.75;1.58;;;12.20;90.80;;;;;;5044714;28;20465;-73
2023/01/06 06:16:08;;;;;;;2.58;1.45;;;12.10;90.80;;;;;;5044627;28;20059;-74
2023/01/06 06:18:39;;;;;;;2.85;1.40;;;12.10;90.80;;;;;;5043917;28;20029;-76
2023/01/06 06:21:05;;;;;;;2.75;1.40;;;12.10;90.80;;;;;;5046795;28;20063;-75
2023/01/06 06:23:30;;;;;;;1.80;1.30;;;12.10;90.80;;;;;;5044939;28;20064;-75
2023/01/06 06:25:56;;;;;;;2.53;1.60;;;12.10;90.80;;;;;;5046429;28;20051;-74
2023/01/06 06:28:22;;;;;;;2.45;1.20;;;12.10;90.80;;;;;;5051994;28;20068;-74
2023/01/06 06:30:48;;;;;;;4.03;1.60;;;12.10;90.80;;;;;;5049809;28;20552;-73
2023/01/06 06:33:13;;;;;;;2.03;1.30;;;12.20;90.80;;;;;;5056733;28;20035;-74
2023/01/06 06:35:39;;;;;;;2.08;1.40;;;12.10;90.80;;;;;;5064569;28;20020;-76
2023/01/06 06:38:04;;;;;;;1.85;1.13;;;12.10;90.80;;;;;;5065414;28;20034;-74
2023/01/06 06:40:30;;;;;;;2.78;1.45;;;12.10;90.80;;;;;;5064706;28;20052;-75
2023/01/06 06:42:56;;;;;;;2.85;1.50;;;12.10;90.80;;;;;;5054259;28;20055;-75
2023/01/06 06:45:22;;;;;;;1.73;1.15;;;12.20;90.80;;;;;;5044901;28;20025;-75
2023/01/06 06:47:47;;;;;;;2.08;1.20;;;12.10;90.80;;;;;;5044446;28;20439;-75
2023/01/06 06:50:12;;;;;;;1.95;1.13;;;12.10;90.80;;;;;;5044514;28;20120;-75
2023/01/06 06:52:38;;;;;;;1.75;1.20;;;12.20;90.80;;;;;;5044609;28;20637;-74
2023/01/06 06:55:04;;;;;;;2.72;1.23;;;12.10;90.70;;;;;;5044368;28;20060;-75
2023/01/06 06:57:29;;;;;;;2.25;1.10;;;12.10;90.70;;;;;;5056905;28;20409;-74
2023/01/06 06:59:55;;;;;;;2.33;1.30;;;12.10;90.70;;;;;;5064151;28;20331;-74
2023/01/06 07:02:20;;;;;;;1.95;1.30;;;12.10;90.70;;;;;;5062276;28;20029;-76
2023/01/06 07:04:46;;;;;;;2.22;1.30;;;12.10;90.70;;;;;;5062863;28;20476;-73
2023/01/06 07:07:11;;;;;;;2.65;1.20;;;12.10;90.70;;;;;;5061727;28;20039;-74
2023/01/06 07:09:37;;;;;;;1.92;1.27;;;12.10;90.70;;;;;;5063922;28;20119;-74
2023/01/06 07:12:03;;;;;;;1.65;1.10;;;12.10;90.70;;;;;;5063792;28;20037;-74
2023/01/06 07:14:28;;;;;;;2.17;1.20;;;12.10;90.70;;;;;;5063962;28;20128;-75
2023/01/06 07:16:54;;;;;;;1.88;1.20;;;12.10;90.70;;;;;;5065027;28;20067;-74
2023/01/06 07:19:19;;;;;;;2.22;1.10;;;12.20;90.80;;;;;;5064179;28;20025;-74
2023/01/06 07:21:45;;;;;;;2.42;1.17;;;12.10;90.70;;;;;;5062724;28;20074;-75
2023/01/06 07:24:10;;;;;;;2.03;1.23;;;12.10;90.70;;;;;;5043833;28;20036;-75
2023/01/06 07:26:36;;;;;;;2.30;1.00;;;12.10;90.80;;;;;;5044221;28;20367;-76
2023/01/06 07:29:01;;;;;;;1.92;1.10;;;12.20;90.80;;;;;;5047397;28;20033;-74
2023/01/06 07:31:27;;;;;;;1.23;1.00;;;12.10;90.70;;;;;;5047716;28;20444;-75
2023/01/06 07:33:52;;;;;;;1.67;1.10;;;12.10;90.70;;;;;;5047337;28;20079;-75
2023/01/06 07:36:18;;;;;;;1.92;1.10;;;12.10;90.70;;;;;;5047509;28;20037;-74
2023/01/06 07:38:43;;;;;;;1.90;1.10;;;12.10;90.70;;;;;;5046397;28;20024;-74
2023/01/06 07:41:09;;;;;;;1.40;1.10;;;12.00;90.70;;;;;;5046419;28;20025;-75
2023/01/06 07:43:34;;;;;;;1.85;1.15;;;12.10;90.70;;;;;;5047506;28;20067;-75
2023/01/06 07:46:00;;;;;;;2.60;1.08;;;12.10;90.70;;;;;;5046532;28;20076;-74
2023/01/06 07:48:25;;;;;;;2.38;1.27;;;12.10;90.70;;;;;;5046110;28;20340;-74
2023/01/06 07:50:50;;;;;;;1.85;1.08;;;12.10;90.70;;;;;;5047294;28;20025;-76
2023/01/06 07:53:16;;;;;;;2.80;1.10;;;12.10;90.70;;;;;;5045663;28;20036;-74
2023/01/06 07:55:42;;;;;;;2.50;1.20;;;12.10;90.70;;;;;;5047445;28;20041;-74
2023/01/06 07:58:08;;;;;;;1.77;1.10;;;12.10;90.70;;;;;;5046167;28;20067;-74
2023/01/06 08:00:35;;;;;;;2.83;1.10;;;12.10;90.70;;;;;;5047160;28;20579;-75
2023/01/06 08:03:05;;;;;;;1.83;1.00;;;12.20;90.80;;;;;;5045522;28;20035;-74
2023/01/06 08:05:31;;;;;;;2.08;1.15;;;12.10;90.70;;;;;;5047529;28;20511;-77
2023/01/06 08:07:57;;;;;;;2.30;1.38;;;12.10;90.70;;;;;;5047850;28;20040;-74
2023/01/06 08:10:22;;;;;;;2.17;1.17;;;12.10;90.70;;;;;;5046761;28;20087;-74
2023/01/06 08:12:48;;;;;;;2.50;1.05;;;12.10;91.00;;;;;;5046936;28;20036;-74
2023/01/06 08:15:13;;;;;;;2.58;1.10;;;12.10;90.80;;;;;;5051359;28;20105;-74
2023/01/06 08:17:39;;;;;;;2.15;1.20;;;12.10;90.70;;;;;;5067059;28;20032;-76
2023/01/06 08:20:05;;;;;;;2.20;1.13;;;12.20;90.80;;;;;;5066133;28;20613;-74
2023/01/06 08:22:30;;;;;;;3.00;1.15;;;12.10;90.70;;;;;;5066699;28;20028;-74
2023/01/06 08:24:55;;;;;;;2.40;1.15;;;12.10;90.70;;;;;;5065296;28;20031;-74
2023/01/06 08:27:21;;;;;;;1.33;0.85;;;12.00;90.70;;;;;;5064777;28;20090;-74
2023/01/06 08:29:48;;;;;;;1.98;1.00;;;12.20;90.80;;;;;;5065889;28;20024;-74
2023/01/06 08:32:14;;;;;;;2.58;1.33;;;12.10;90.70;;;;;;5064507;28;20516;-76
2023/01/06 08:34:39;;;;;;;1.30;0.90;;;12.20;90.80;;;;;;5064473;28;20288;-74
2023/01/06 08:37:05;;;;;;;1.90;1.10;;;12.10;90.70;;;;;;5066552;28;20074;-75
2023/01/06 08:39:30;;;;;;;1.52;1.00;;;12.20;90.80;;;;;;5064403;28;20484;-74
2023/01/06 08:41:56;;;;;;;1.67;1.02;;;12.20;90.80;;;;;;5065324;28;20108;-74
2023/01/06 08:44:21;;;;;;;1.48;1.08;;;12.20;90.80;;;;;;5066640;28;20112;-75
2023/01/06 08:46:47;;;;;;;1.23;0.90;;;12.20;90.80;;;;;;5065128;28;20276;-74
2023/01/06 08:49:13;;;;;;;2.33;0.90;;;12.20;90.80;;;;;;5066803;28;20062;-81
2023/01/06 08:51:38;;;;;;;1.17;0.90;;;12.10;90.70;;;;;;5066196;28;20025;-77
2023/01/06 08:54:04;;;;;;;2.55;1.00;;;12.20;90.80;;;;;;5068097;28;20107;-77
2023/01/06 08:56:31;;;;;;;1.98;0.90;;;12.10;90.70;;;;;;5068283;28;20032;-79
2023/01/06 08:58:59;;;;;;;2.30;1.17;;;12.20;90.80;;;;;;5068190;28;20103;-78
2023/01/06 09:01:27;;;;;;;1.20;1.00;;;12.10;90.70;;;;;;5067094;28;20025;-77
2023/01/06 09:03:53;;;;;;;1.25;0.90;;;12.10;90.80;;;;;;5069083;28;20841;-77
2023/01/06 09:06:19;;;;;;;3.95;1.05;;;12.20;90.80;;;;;;5069445;28;20066;-79
2023/01/06 09:08:47;;;;;;;2.50;1.05;;;12.10;90.70;;;;;;5071299;28;20024;-78
2023/01/06 09:11:13;;;;;;;2.55;1.00;;;12.20;90.80;;;;;;5067483;28;20416;-74
2023/01/06 09:13:40;;;;;;;1.00;0.90;;;12.20;90.70;;;;;;5066021;28;20047;-76
2023/01/06 09:16:09;;;;;;;1.30;1.00;;;12.20;90.80;;;;;;5066624;28;20465;-74
2023/01/06 09:18:35;;;;;;;1.58;1.00;;;12.20;90.80;;;;;;5065165;28;20107;-75
2023/01/06 09:21:01;;;;;;;1.70;1.10;;;12.10;90.80;;;;;;5066132;28;20236;-75
2023/01/06 09:23:27;;;;;;;2.28;1.05;;;12.20;90.80;;;;;;5065997;28;20107;-74
2023/01/06 09:25:57;;;;;;;1.25;0.90;;;12.10;90.80;;;;;;5064562;28;20370;-74
2023/01/06 09:28:23;;;;;;;1.58;1.10;;;12.20;90.80;;;;;;5066258;28;20063;-74
2023/01/06 09:30:49;;;;;;;1.42;1.00;;;12.20;90.80;;;;;;5065895;28;20028;-76
2023/01/06 09:33:15;;;;;;;1.67;0.90;;;12.20;90.80;;;;;;5064501;28;20060;-75
2023/01/06 09:35:43;;;;;;;2.38;0.90;;;12.10;90.70;;;;;;5066146;28;20024;-76
2023/01/06 09:38:09;;;;;;;1.38;0.90;;;12.10;90.80;;;;;;5066024;28;20016;-76
2023/01/06 09:40:49;;;;;;;2.08;1.00;;;12.20;90.80;;;;;;5064539;28;20053;-76
2023/01/06 09:43:44;;;;;;;1.27;0.98;;;12.10;90.80;;;;;;5066041;28;20439;-76
2023/01/06 09:46:13;;;;;;;2.13;0.90;;;12.20;90.80;;;;;;5066057;28;20024;-75
2023/01/06 09:48:54;;;;;;;1.63;0.93;;;12.20;90.80;;;;;;5065765;28;20035;-75
2023/01/06 09:51:22;;;;;;;1.95;1.02;;;12.10;90.80;;;;;;5064060;28;20442;-77
2023/01/06 09:53:57;;;;;;;2.55;1.10;;;12.10;90.80;;;;;;5064127;28;20101;-76
2023/01/06 09:56:23;;;;;;;1.55;0.80;;;12.20;90.80;;;;;;5065653;28;20106;-76
2023/01/06 09:59:07;;;;;;;1.10;0.80;;;12.10;90.80;;;;;;5065680;28;20064;-76
2023/01/06 10:01:43;;;;;;;1.65;0.98;;;12.20;90.80;;;;;;5065565;28;20031;-75
2023/01/06 10:04:17;;;;;;;1.48;0.90;;;12.20;90.80;;;;;;5063796;28;20032;-75
2023/01/06 10:06:54;;;;;;;1.65;0.85;;;12.10;90.80;;;;;;5065426;28;20040;-76
2023/01/06 10:09:27;;;;;;;2.45;0.98;;;12.20;90.80;;;;;;5065813;28;20031;-76
2023/01/06 10:12:21;;;;;;;1.88;1.10;;;12.20;90.80;;;;;;5065111;28;20056;-75
2023/01/06 10:14:49;;;;;;;3.03;1.30;;;12.20;90.80;;;;;;5065400;28;20112;-75
2023/01/06 10:17:50;;;;;;;1.33;0.85;;;12.20;90.80;;;;;;5063926;28;20459;-75
2023/01/06 10:20:19;;;;;;;1.55;0.80;;;12.20;90.80;;;;;;5065592;28;20025;-75
2023/01/06 10:23:06;;;;;;;1.38;0.88;;;12.20;90.80;;;;;;5063572;28;20606;-75
2023/01/06 10:25:41;;;;;;;1.52;0.90;;;12.20;90.80;;;;;;5065259;28;20029;-74
2023/01/06 10:28:29;;;;;;;1.52;1.00;;;12.20;90.80;;;;;;5064253;28;20511;-75
2023/01/06 10:31:04;;;;;;;1.10;0.90;;;12.20;90.90;;;;;;5065199;28;20476;-75
2023/01/06 10:33:33;;;;;;;1.55;0.90;;;12.20;90.80;;;;;;5065227;28;20016;-75
2023/01/06 10:35:59;;;;;;;1.08;0.88;;;12.10;90.90;;;;;;5063913;28;20500;-75
2023/01/06 10:38:37;;;;;;;1.48;1.00;;;12.20;90.80;;;;;;5065005;28;20028;-76
2023/01/06 10:41:12;;;;;;;1.80;0.98;;;12.10;90.80;;;;;;5065193;28;20415;-75
2023/01/06 10:43:37;;;;;;;0.80;0.80;;;12.20;90.80;;;;;;5063336;28;20571;-77
2023/01/06 10:46:03;;;;;;;1.63;1.00;;;12.20;90.80;;;;;;5064022;28;20123;-76
2023/01/06 10:48:31;;;;;;;1.13;0.85;;;12.20;90.80;;;;;;5065118;28;20032;-76
2023/01/06 10:50:56;;;;;;;1.35;0.80;;;12.20;90.80;;;;;;5065257;28;20039;-76
2023/01/06 10:53:22;;;;;;;1.63;0.80;;;12.20;90.90;;;;;;5064618;28;20516;-75
2023/01/06 10:55:53;;;;;;;2.90;0.90;;;12.30;90.70;;;;;;5063818;28;20047;-76
2023/01/06 10:58:38;;;;;;;;;;;12.40;90.70;;;;;;5064233;28;20115;-76
2023/01/06 11:01:14;;;;;;;1.95;0.90;;;12.40;90.40;;;;;;5063704;28;20372;-75
2023/01/06 11:03:44;;;;;;;1.35;0.85;;;12.40;90.20;;;;;;5066034;28;20028;-75
2023/01/06 11:06:21;;;;;;;1.05;0.80;;;12.50;90.10;;;;;;5067834;28;20060;-75
2023/01/06 11:08:46;;;;;;;1.27;0.90;;;12.50;90.10;;;;;;5067634;28;20028;-76
2023/01/06 11:11:15;;;;;;;1.98;0.80;;;12.50;90.00;;;;;;5067628;28;20035;-77
2023/01/06 11:13:46;;;;;;;1.42;0.90;;;12.50;90.10;;;;;;5067347;28;20078;-75
2023/01/06 11:16:30;;;;;;;0.95;0.80;;;12.50;90.10;;;;;;5067756;28;20024;-75
2023/01/06 11:19:30;;;;;;;0.85;0.80;;;12.50;90.10;;;;;;5067311;28;20168;-75
2023/01/06 11:21:55;;;;;;;1.05;0.70;;;12.40;90.10;;;;;;5067317;28;20029;-75
2023/01/06 11:24:25;;;;;;;1.33;0.90;;;12.40;90.20;;;;;;5067149;28;20086;-75
2023/01/06 11:27:00;;;;;;;1.20;0.90;;;12.40;90.30;;;;;;5067182;28;20365;-76
2023/01/06 11:29:34;;;;;;;1.70;1.00;;;12.40;90.30;;;;;;5067032;28;20237;-76
2023/01/06 11:32:09;;;;;;;0.85;0.80;;;12.40;90.30;;;;;;5068477;28;20104;-78
2023/01/06 11:34:35;;;;;;;1.52;0.80;;;12.40;90.20;;;;;;5068084;28;20048;-76
2023/01/06 11:37:01;;;;;;;1.40;0.90;;;12.40;90.20;;;;;;5068371;28;20441;-75
2023/01/06 11:39:30;;;;;;;1.77;1.10;;;12.40;90.20;;;;;;5067144;28;20028;-76
2023/01/06 11:42:03;;;;;;;0.85;0.80;;;12.40;90.20;;;;;;5067103;28;20107;-76
2023/01/06 11:44:32;;;;;;;2.13;1.05;;;12.40;90.20;;;;;;5066569;28;20063;-75
2023/01/06 11:47:19;;;;;;;0.93;0.82;;;12.40;90.30;;;;;;5068472;28;20020;-75
2023/01/06 11:50:04;;;;;;;1.30;0.85;;;12.40;90.30;;;;;;5067813;28;20025;-76
2023/01/06 11:52:31;;;;;;;1.92;0.95;;;12.40;90.30;;;;;;5067584;28;20036;-75
2023/01/06 11:55:01;;;;;;;0.75;0.75;;;12.40;90.30;;;;;;5066816;28;20426;-76
2023/01/06 11:57:50;;;;;;;1.13;0.90;;;12.40;90.40;;;;;;5066788;28;20039;-76
2023/01/06 12:00:47;;;;;;;1.30;0.82;;;12.30;90.30;;;;;;5066651;28;20481;-74
2023/01/06 12:03:18;;;;;;;1.25;0.85;;;12.40;90.30;;;;;;5066631;28;20032;-76
2023/01/06 12:05:53;;;;;;;1.27;1.00;;;12.40;90.30;;;;;;5066181;28;20115;-76
2023/01/06 12:08:27;;;;;;;1.35;0.90;;;12.40;90.30;;;;;;5067826;28;20037;-76
2023/01/06 12:11:19;;;;;;;2.08;0.90;;;12.40;90.30;;;;;;5067517;28;20036;-75
2023/01/06 12:13:45;;;;;;;1.60;1.00;;;12.40;90.30;;;;;;5064954;28;20024;-75
2023/01/06 12:16:30;;;;;;;1.10;0.75;;;12.40;90.20;;;;;;5066207;28;20024;-75
2023/01/06 12:18:55;;;;;;;1.80;0.95;;;12.50;90.20;;;;;;5066406;28;20029;-76
2023/01/06 12:21:30;;;;;;;1.55;0.90;;;12.50;90.20;;;;;;5066355;28;20123;-75
2023/01/06 12:24:00;;;;;;;1.33;0.90;;;12.50;90.10;;;;;;5067418;28;20071;-75
2023/01/06 12:26:27;;;;;;;1.50;0.90;;;12.60;90.10;;;;;;5066163;28;20028;-76
2023/01/06 12:28:54;;;;;;;0.88;0.80;;;12.60;90.00;;;;;;5066217;28;20024;-75
2023/01/06 12:31:33;;;;;;;1.52;0.82;;;12.50;90.00;;;;;;5066220;28;20032;-76
2023/01/06 12:34:04;;;;;;;1.48;1.00;;;12.60;90.00;;;;;;5065661;28;20029;-76
2023/01/06 12:36:41;;;;;;;1.58;1.00;;;12.60;90.00;;;;;;5067243;28;20021;-75
2023/01/06 12:39:21;;;;;;;0.93;0.80;;;12.60;90.10;;;;;;5065805;28;20821;-75
2023/01/06 12:41:58;;;;;;;1.13;0.90;;;12.60;89.80;;;;;;5067149;28;20089;-74
2023/01/06 12:44:44;;;;;;;1.45;0.90;;;12.60;89.70;;;;;;5066899;28;20389;-75
2023/01/06 12:47:29;;;;;;;1.33;0.90;;;12.70;89.70;;;;;;5066981;28;20095;-75
2023/01/06 12:50:01;;;;;;;1.17;0.80;;;12.70;89.50;;;;;;5067004;28;20036;-76
2023/01/06 12:52:42;;;;;;;0.98;0.82;;;12.70;89.30;;;;;;5065695;28;20115;-75
2023/01/06 12:55:11;;;;;;;;;;;12.80;89.10;;;;;;5065904;28;20454;-75
2023/01/06 12:58:14;;;;;;;1.08;0.85;;;12.80;89.10;;;;;;5066797;28;19912;-76
2023/01/06 13:00:57;;;;;;;1.17;0.90;;;12.80;88.80;;;;;;5065317;28;20052;-75
2023/01/06 13:03:52;;;;;;;1.20;0.90;;;12.90;88.80;;;;;;5066588;28;20543;-75
2023/01/06 13:06:24;;;;;;;1.20;1.00;;;12.80;88.70;;;;;;5066401;28;20450;-75